createdAt,value
2023-02-28T00:03:57.401Z,47.86
2023-02-28T00:09:21.943Z,49.83
2023-02-28T00:14:47.053Z,51.05
2023-02-28T00:20:13.069Z,52.32
2023-02-28T00:25:37.373Z,53.93
2023-02-28T00:31:01.668Z,55.19
2023-02-28T00:36:26.626Z,57.17
2023-02-28T00:41:51.326Z,57.77
2023-02-28T00:47:17.377Z,58.73
2023-02-28T00:52:42.451Z,59.60
2023-02-28T00:58:07.072Z,60.12
2023-02-28T01:03:31.340Z,60.74
2023-02-28T01:08:56.559Z,61.24
2023-02-28T01:14:21.078Z,70.69
2023-02-28T01:19:45.574Z,76.86
2023-02-28T01:25:10.413Z,72.69
2023-02-28T01:30:35.604Z,67.32
2023-02-28T01:36:01.357Z,62.68
2023-02-28T01:41:32.774Z,53.47
2023-02-28T01:46:58.411Z,47.89
2023-02-28T01:52:26.391Z,48.49
2023-02-28T01:57:56.521Z,50.01
2023-02-28T02:03:21.926Z,51.57
2023-02-28T02:08:46.246Z,53.05
2023-02-28T02:14:15.903Z,54.70
2023-02-28T02:20:02.457Z,55.93
2023-02-28T02:25:30.273Z,57.44
2023-02-28T02:31:06.178Z,57.79
2023-02-28T02:36:40.148Z,58.71
2023-02-28T02:42:13.588Z,59.52
2023-02-28T02:47:39.785Z,60.64
2023-02-28T02:53:06.742Z,61.01
2023-02-28T02:58:37.352Z,61.30
2023-02-28T03:04:10.152Z,61.60
2023-02-28T03:09:36.949Z,72.07
2023-02-28T03:15:22.983Z,77.24
2023-02-28T03:20:55.494Z,73.41
2023-02-28T03:26:24.264Z,68.59
2023-02-28T03:32:23.080Z,63.70
2023-02-28T03:37:49.198Z,60.14
2023-02-28T03:43:21.745Z,52.18
2023-02-28T03:48:53.734Z,46.85
2023-02-28T03:54:24.688Z,47.19
2023-02-28T03:59:58.363Z,48.39
2023-02-28T04:05:24.649Z,49.80
2023-02-28T04:11:02.485Z,51.38
2023-02-28T04:16:35.094Z,52.82
2023-02-28T04:21:59.641Z,54.26
2023-02-28T04:27:23.869Z,55.62
2023-02-28T04:32:49.376Z,56.69
2023-02-28T04:38:14.721Z,57.84
2023-02-28T04:43:39.512Z,58.69
2023-02-28T04:49:04.333Z,59.39
2023-02-28T04:54:29.696Z,60.01
2023-02-28T04:59:54.034Z,60.82
2023-02-28T05:05:19.400Z,61.16
2023-02-28T05:10:44.151Z,61.68
2023-02-28T05:16:09.158Z,72.46
2023-02-28T05:21:39.421Z,77.73
2023-02-28T05:27:04.753Z,72.94
2023-02-28T05:32:29.102Z,67.54
2023-02-28T05:37:54.727Z,63.05
2023-02-28T05:43:19.386Z,60.01
2023-02-28T05:48:48.991Z,51.58
2023-02-28T05:54:14.593Z,46.50
2023-02-28T05:59:41.269Z,46.80
2023-02-28T06:05:05.332Z,48.29
2023-02-28T06:10:30.397Z,51.39
2023-02-28T06:15:56.289Z,53.13
2023-02-28T06:21:21.145Z,54.18
2023-02-28T06:26:45.704Z,55.56
2023-02-28T06:32:10.801Z,56.55
2023-02-28T06:37:35.187Z,57.63
2023-02-28T06:42:59.485Z,58.79
2023-02-28T06:48:25.534Z,59.54
2023-02-28T06:53:50.401Z,59.80
2023-02-28T06:59:14.775Z,60.31
2023-02-28T07:04:40.863Z,61.04
2023-02-28T07:10:05.743Z,69.67
2023-02-28T07:15:30.080Z,76.12
2023-02-28T07:20:55.812Z,71.95
2023-02-28T07:26:22.288Z,67.18
2023-02-28T07:31:47.940Z,62.81
2023-02-28T07:37:12.634Z,60.49
2023-02-28T07:42:38.121Z,52.76
2023-02-28T07:48:02.761Z,47.45
2023-02-28T07:53:29.231Z,49.72
2023-02-28T07:58:54.187Z,50.71
2023-02-28T08:04:19.859Z,52.73
2023-02-28T08:09:44.914Z,54.59
2023-02-28T08:15:09.706Z,55.22
2023-02-28T08:20:34.060Z,56.48
2023-02-28T08:25:59.112Z,57.37
2023-02-28T08:31:24.582Z,57.98
2023-02-28T08:36:48.660Z,58.46
2023-02-28T08:42:13.235Z,57.83
2023-02-28T08:47:37.224Z,57.66
2023-02-28T08:53:01.872Z,58.35
2023-02-28T08:58:27.319Z,58.04
2023-02-28T09:03:52.810Z,57.99
2023-02-28T09:09:17.186Z,57.87
2023-02-28T09:14:41.780Z,57.57
2023-02-28T09:20:06.872Z,57.38
2023-02-28T09:25:31.563Z,58.21
2023-02-28T09:30:58.932Z,57.26
2023-02-28T09:36:34.486Z,56.89
2023-02-28T09:42:08.945Z,56.62
2023-02-28T09:47:38.180Z,57.02
2023-02-28T09:53:12.658Z,57.16
2023-02-28T09:58:58.159Z,57.02
2023-02-28T10:04:27.057Z,56.03
2023-02-28T10:09:56.370Z,55.70
2023-02-28T10:15:23.347Z,55.91
2023-02-28T10:20:49.131Z,55.26
2023-02-28T10:26:17.472Z,54.94
2023-02-28T10:31:42.258Z,55.34
2023-02-28T10:37:10.635Z,54.33
2023-02-28T10:42:40.192Z,54.23
2023-02-28T10:48:26.198Z,54.21
2023-02-28T10:54:03.095Z,53.82
2023-02-28T10:59:32.501Z,54.22
2023-02-28T11:04:57.326Z,53.37
2023-02-28T11:10:27.308Z,52.75
2023-02-28T11:16:00.423Z,53.17
2023-02-28T11:21:31.484Z,53.26
2023-02-28T11:26:56.474Z,53.47
2023-02-28T11:32:24.180Z,53.65
2023-02-28T11:37:48.869Z,53.42
2023-02-28T11:43:28.600Z,53.61
2023-02-28T11:49:32.754Z,53.44
2023-02-28T11:54:57.187Z,53.54
2023-02-28T12:00:42.087Z,53.96
2023-02-28T12:06:15.129Z,53.13
2023-02-28T12:12:00.813Z,52.96
2023-02-28T12:17:39.013Z,53.80
2023-02-28T12:23:25.488Z,53.10
2023-02-28T12:28:54.718Z,54.06
2023-02-28T12:34:24.418Z,54.00
2023-02-28T12:39:54.332Z,51.63
2023-02-28T12:45:22.794Z,51.59
2023-02-28T12:50:49.284Z,52.21
2023-02-28T12:56:47.401Z,52.56
2023-02-28T13:02:40.482Z,52.55
2023-02-28T13:08:25.994Z,51.89
2023-02-28T13:13:58.325Z,52.66
2023-02-28T13:19:24.617Z,51.64
2023-02-28T13:24:57.731Z,52.42
2023-02-28T13:30:54.300Z,50.91
2023-02-28T13:36:21.411Z,51.66
2023-02-28T13:41:47.194Z,51.11
2023-02-28T13:47:14.345Z,51.47
2023-02-28T13:53:05.936Z,50.24
2023-02-28T13:58:41.928Z,50.20
2023-02-28T14:04:19.031Z,49.90
2023-02-28T14:09:51.100Z,50.44
2023-02-28T14:15:46.162Z,51.13
2023-02-28T14:21:22.874Z,51.30
2023-02-28T14:27:16.516Z,51.44
2023-02-28T14:32:51.986Z,51.14
2023-02-28T14:38:23.539Z,50.18
2023-02-28T14:43:54.669Z,51.01
2023-02-28T14:49:18.990Z,50.73
2023-02-28T14:54:44.991Z,50.27
2023-02-28T15:00:17.864Z,50.36
2023-02-28T15:05:42.883Z,50.39
2023-02-28T15:11:16.469Z,49.99
2023-02-28T15:16:42.736Z,50.62
2023-02-28T15:22:18.101Z,50.49
2023-02-28T15:27:57.107Z,50.61
2023-02-28T15:33:30.208Z,51.07
2023-02-28T15:38:57.734Z,51.12
2023-02-28T15:44:25.736Z,51.37
2023-02-28T15:49:54.793Z,51.17
2023-02-28T15:55:25.423Z,51.65
2023-02-28T16:01:06.201Z,51.45
2023-02-28T16:06:41.047Z,51.76
2023-02-28T16:12:06.912Z,52.17
2023-02-28T16:17:39.022Z,52.39
2023-02-28T16:23:04.192Z,52.32
2023-02-28T16:28:38.215Z,52.37
2023-02-28T16:34:02.457Z,52.27
2023-02-28T16:39:27.113Z,52.32
2023-02-28T16:44:52.582Z,52.39
2023-02-28T16:50:24.055Z,52.61
2023-02-28T16:55:48.953Z,52.49
2023-02-28T17:01:13.345Z,53.09
2023-02-28T17:06:37.905Z,53.66
2023-02-28T17:12:03.000Z,53.89
2023-02-28T17:17:27.973Z,54.26
2023-02-28T17:22:53.054Z,54.68
2023-02-28T17:28:17.633Z,55.02
2023-02-28T17:33:42.763Z,55.22
2023-02-28T17:39:15.137Z,55.31
2023-02-28T17:44:39.776Z,55.48
2023-02-28T17:50:06.287Z,55.61
2023-02-28T17:55:31.134Z,55.86
2023-02-28T18:00:55.763Z,56.14
2023-02-28T18:06:32.518Z,56.45
2023-02-28T18:11:57.784Z,56.67
2023-02-28T18:17:22.200Z,56.95
2023-02-28T18:22:47.979Z,57.05
2023-02-28T18:28:13.140Z,57.30
2023-02-28T18:33:38.154Z,57.51
2023-02-28T18:39:02.280Z,57.69
2023-02-28T18:44:26.941Z,57.93
2023-02-28T18:49:51.376Z,58.13
2023-02-28T18:55:19.407Z,58.31
2023-02-28T19:00:44.772Z,58.54
2023-02-28T19:06:10.888Z,58.82
2023-02-28T19:11:36.893Z,59.07
2023-02-28T19:17:01.496Z,59.28
2023-02-28T19:22:26.655Z,59.54
2023-02-28T19:27:55.724Z,59.86
2023-02-28T19:33:21.249Z,60.04
2023-02-28T19:38:46.260Z,60.28
2023-02-28T19:44:10.910Z,60.49
2023-02-28T19:49:35.499Z,60.71
2023-02-28T19:55:00.677Z,60.94
2023-02-28T20:00:25.919Z,61.14
2023-02-28T20:06:01.524Z,61.35
2023-02-28T20:11:26.079Z,61.54
2023-02-28T20:16:51.233Z,61.93
2023-02-28T20:22:17.278Z,62.15
2023-02-28T20:27:41.808Z,72.91
2023-02-28T20:33:06.574Z,79.55
2023-02-28T20:38:31.395Z,75.15
2023-02-28T20:43:58.526Z,70.21
2023-02-28T20:49:23.381Z,65.60
2023-02-28T20:54:48.238Z,61.27
2023-02-28T21:00:16.603Z,51.76
2023-02-28T21:05:41.849Z,46.05
2023-02-28T21:11:11.500Z,46.16
2023-02-28T21:16:37.900Z,47.10
2023-02-28T21:22:02.946Z,48.41
2023-02-28T21:27:27.066Z,49.79
2023-02-28T21:32:52.150Z,51.28
2023-02-28T21:38:17.849Z,52.67
2023-02-28T21:43:44.328Z,53.87
2023-02-28T21:49:08.513Z,54.90
2023-02-28T21:54:33.195Z,55.81
2023-02-28T21:59:57.364Z,56.67
2023-02-28T22:05:21.611Z,57.32
2023-02-28T22:10:47.263Z,57.89
2023-02-28T22:16:17.112Z,58.63
2023-02-28T22:21:42.138Z,59.13
2023-02-28T22:27:07.003Z,59.56
2023-02-28T22:32:31.173Z,59.98
2023-02-28T22:37:57.208Z,60.45
2023-02-28T22:43:22.596Z,60.82
2023-02-28T22:48:49.041Z,61.14
2023-02-28T22:54:13.024Z,61.45
2023-02-28T22:59:37.454Z,61.75
2023-02-28T23:05:01.506Z,62.04
2023-02-28T23:10:25.618Z,71.37
2023-02-28T23:15:50.583Z,78.65
2023-02-28T23:21:15.070Z,74.92
2023-02-28T23:26:42.616Z,70.29
2023-02-28T23:32:07.214Z,65.32
2023-02-28T23:37:32.633Z,60.93
2023-02-28T23:42:56.685Z,51.38
2023-02-28T23:48:21.712Z,45.91
2023-02-28T23:53:50.384Z,46.09
2023-02-28T23:59:15.085Z,46.97
